地図

経路データ

SID SEASON NUMBER BASIN SUBBASIN NAME ISO_TIME NATURE LAT LON WMO_WIND WMO_PRES WMO_AGENCY TRACK_TYPE DIST2LAND LANDFALL IFLAG USA_AGENCY USA_ATCF_ID USA_LAT USA_LON USA_RECORD USA_STATUS USA_WIND USA_PRES USA_SSHS USA_R34_NE USA_R34_SE USA_R34_SW USA_R34_NW USA_R50_NE USA_R50_SE USA_R50_SW USA_R50_NW USA_R64_NE USA_R64_SE USA_R64_SW USA_R64_NW USA_POCI USA_ROCI USA_RMW USA_EYE TOKYO_LAT TOKYO_LON TOKYO_GRADE TOKYO_WIND TOKYO_PRES TOKYO_R50_DIR TOKYO_R50_LONG TOKYO_R50_SHORT TOKYO_R30_DIR TOKYO_R30_LONG TOKYO_R30_SHORT TOKYO_LAND CMA_LAT CMA_LON CMA_CAT CMA_WIND CMA_PRES HKO_LAT HKO_LON HKO_CAT HKO_WIND HKO_PRES NEWDELHI_LAT NEWDELHI_LON NEWDELHI_GRADE NEWDELHI_WIND NEWDELHI_PRES NEWDELHI_CI NEWDELHI_DP NEWDELHI_POCI REUNION_LAT REUNION_LON REUNION_TYPE REUNION_WIND REUNION_PRES REUNION_TNUM REUNION_CI REUNION_RMW REUNION_R34_NE REUNION_R34_SE REUNION_R34_SW REUNION_R34_NW REUNION_R50_NE REUNION_R50_SE REUNION_R50_SW REUNION_R50_NW REUNION_R64_NE REUNION_R64_SE REUNION_R64_SW REUNION_R64_NW BOM_LAT BOM_LON BOM_TYPE BOM_WIND BOM_PRES BOM_TNUM BOM_CI BOM_RMW BOM_R34_NE BOM_R34_SE BOM_R34_SW BOM_R34_NW BOM_R50_NE BOM_R50_SE BOM_R50_SW BOM_R50_NW BOM_R64_NE BOM_R64_SE BOM_R64_SW BOM_R64_NW BOM_ROCI BOM_POCI BOM_EYE BOM_POS_METHOD BOM_PRES_METHOD NADI_LAT NADI_LON NADI_CAT NADI_WIND NADI_PRES WELLINGTON_LAT WELLINGTON_LON WELLINGTON_WIND WELLINGTON_PRES DS824_LAT DS824_LON DS824_STAGE DS824_WIND DS824_PRES TD9636_LAT TD9636_LON TD9636_STAGE TD9636_WIND TD9636_PRES TD9635_LAT TD9635_LON TD9635_WIND TD9635_PRES TD9635_ROCI NEUMANN_LAT NEUMANN_LON NEUMANN_CLASS NEUMANN_WIND NEUMANN_PRES MLC_LAT MLC_LON MLC_CLASS MLC_WIND MLC_PRES USA_GUST BOM_GUST BOM_GUST_PER REUNION_GUST REUNION_GUST_PER USA_SEAHGT USA_SEARAD_NE USA_SEARAD_SE USA_SEARAD_SW USA_SEARAD_NW STORM_SPEED STORM_DIR
1933092S24153 1933 8 SP EA NOT_NAMED 1933-04-01 12:00:00 NR -24.4000 153.000 main 45 22 __________O___ -1 -24.4000 153.000 7 6 144
1933092S24153 1933 8 SP EA NOT_NAMED 1933-04-01 15:00:00 NR -24.6315 153.182 main 22 0 __________P___ -1 -24.6315 153.182 7 6 145
1933092S24153 1933 8 SP EA NOT_NAMED 1933-04-01 18:00:00 NR -24.8602 153.362 main 10 0 __________P___ -1 -24.8602 153.362 7 6 145
1933092S24153 1933 8 SP EA NOT_NAMED 1933-04-01 21:00:00 NR -25.0839 153.536 main 15 15 __________P___ -1 -25.0839 153.536 7 5 145
1933092S24153 1933 8 SP EA NOT_NAMED 1933-04-02 00:00:00 NR -25.3000 153.700 main 41 41 __________O___ -1 -25.3000 153.700 7 5 146
1933092S24153 1933 8 SP EA NOT_NAMED 1933-04-02 03:00:00 NR -25.5071 153.853 main 68 68 __________P___ -1 -25.5071 153.853 7 5 146
1933092S24153 1933 8 SP EA NOT_NAMED 1933-04-02 06:00:00 NR -25.7073 154.000 main 83 83 __________P___ -1 -25.7073 154.000 7 5 146
1933092S24153 1933 8 SP EA NOT_NAMED 1933-04-02 09:00:00 NR -25.9039 154.147 main 99 99 __________P___ -1 -25.9039 154.147 7 5 146
1933092S24153 1933 8 SP EA NOT_NAMED 1933-04-02 12:00:00 NR -26.1000 154.300 main 119 119 __________O___ -1 -26.1000 154.300 7 5 143
1933092S24153 1933 8 SP EA NOT_NAMED 1933-04-02 15:00:00 NR -26.3041 154.480 main 139 139 __________P___ -1 -26.3041 154.480 7 5 141
1933092S24153 1933 8 SP EA NOT_NAMED 1933-04-02 18:00:00 NR -26.5076 154.665 main 159 158 __________P___ -1 -26.5076 154.665 7 5 141
1933092S24153 1933 8 SP EA NOT_NAMED 1933-04-02 21:00:00 NR -26.7073 154.842 main 164 164 __________P___ -1 -26.7073 154.842 7 5 143
1933092S24153 1933 8 SP EA NOT_NAMED 1933-04-03 00:00:00 NR -26.9000 155.000 main 179 176 __________O___ -1 -26.9000 155.000 7 5 146
1933092S24153 1933 8 SP EA NOT_NAMED 1933-04-03 03:00:00 NR -27.0861 155.122 main 183 183 __________P___ -1 -27.0861 155.122 7 4 152
1933092S24153 1933 8 SP EA NOT_NAMED 1933-04-03 06:00:00 NR -27.2648 155.223 main 186 186 __________P___ -1 -27.2648 155.223 7 4 155
1933092S24153 1933 8 SP EA NOT_NAMED 1933-04-03 09:00:00 NR -27.4362 155.312 main 189 184 __________P___ -1 -27.4362 155.312 7 4 155
1933092S24153 1933 8 SP EA NOT_NAMED 1933-04-03 12:00:00 NR -27.6000 155.400 main 188 185 __________O___ -1 -27.6000 155.400 7 3 156
1933092S24153 1933 8 SP EA NOT_NAMED 1933-04-03 15:00:00 NR -27.7489 155.476 main 194 189 __________P___ -1 -27.7489 155.476 7 3 154
1933092S24153 1933 8 SP EA NOT_NAMED 1933-04-03 18:00:00 NR -27.8922 155.556 main 198 197 __________P___ -1 -27.8922 155.556 7 3 151
1933092S24153 1933 8 SP EA NOT_NAMED 1933-04-03 21:00:00 NR -28.0394 155.657 main 206 205 __________P___ -1 -28.0394 155.657 7 4 145
1933092S24153 1933 8 SP EA NOT_NAMED 1933-04-04 00:00:00 NR -28.2000 155.800 main 215 215 __________O___ -1 -28.2000 155.800 7 5 140
1933092S24153 1933 8 SP EA NOT_NAMED 1933-04-04 03:00:00 NR -28.4020 156.002 main 235 235 __________P___ -1 -28.4020 156.002 7 6 137
1933092S24153 1933 8 SP EA NOT_NAMED 1933-04-04 06:00:00 NR -28.6151 156.247 main 253 253 __________P___ -1 -28.6151 156.247 7 6 133
1933092S24153 1933 8 SP EA NOT_NAMED 1933-04-04 09:00:00 NR -28.8207 156.518 main 282 282 __________P___ -1 -28.8207 156.518 7 6 128
1933092S24153 1933 8 SP EA NOT_NAMED 1933-04-04 12:00:00 NR -29.0000 156.800 main 311 311 __________O___ -1 -29.0000 156.800 7 6 123
1933092S24153 1933 8 SP EA NOT_NAMED 1933-04-04 15:00:00 NR -29.1395 157.080 main 340 340 __________P___ -1 -29.1395 157.080 7 5 117
1933092S24153 1933 8 SP EA NOT_NAMED 1933-04-04 18:00:00 NR -29.2453 157.355 main 370 370 __________P___ -1 -29.2453 157.355 7 5 112
1933092S24153 1933 8 SP EA NOT_NAMED 1933-04-04 21:00:00 NR -29.3284 157.628 main 390 390 __________P___ -1 -29.3284 157.628 7 5 108
1933092S24153 1933 8 SP EA NOT_NAMED 1933-04-05 00:00:00 NR -29.4000 157.900 main 420 __________O___ -1 -29.4000 157.900 7 5 107

デジタル台風データ・検索

IBTrACS Databaseについて

本データベースは、米国NOAAが公開する1842年以降の世界の熱帯低気圧のベストトラックデータアーカイブInternational Best Track Archive for Climate Stewardship (IBTrACS)を、ウェブで閲覧しやすい形式に変換したものです。

最終更新日:2021-10-27